sensor_id;sensor_type;location;lat;lon;timestamp;pressure;altitude;pressure_sealevel;temperature;humidity
51249;BME280;39642;47.556;18.728;2023-03-21T00:01:11;99621.19;;;20.54;32.64
51249;BME280;39642;47.556;18.728;2023-03-21T00:03:38;99624.69;;;20.55;32.68
51249;BME280;39642;47.556;18.728;2023-03-21T00:06:05;99618.53;;;20.54;32.64
51249;BME280;39642;47.556;18.728;2023-03-21T00:08:32;99620.34;;;20.54;32.65
51249;BME280;39642;47.556;18.728;2023-03-21T00:11:00;99624.69;;;20.55;32.68
51249;BME280;39642;47.556;18.728;2023-03-21T00:13:27;99615.91;;;20.54;32.59
51249;BME280;39642;47.556;18.728;2023-03-21T00:16:03;99626.41;;;20.56;32.58
51249;BME280;39642;47.556;18.728;2023-03-21T00:18:29;99624.69;;;20.55;32.70
51249;BME280;39642;47.556;18.728;2023-03-21T00:21:00;99623.75;;;20.56;32.68
51249;BME280;39642;47.556;18.728;2023-03-21T00:23:27;99618.53;;;20.54;32.68
51249;BME280;39642;47.556;18.728;2023-03-21T00:25:53;99614.09;;;20.55;32.64
51249;BME280;39642;47.556;18.728;2023-03-21T00:28:20;99622.03;;;20.55;32.70
51249;BME280;39642;47.556;18.728;2023-03-21T00:30:46;99607.13;;;20.54;32.69
51249;BME280;39642;47.556;18.728;2023-03-21T00:33:12;99606.16;;;20.55;32.71
51249;BME280;39642;47.556;18.728;2023-03-21T00:35:39;99606.16;;;20.55;32.71
51249;BME280;39642;47.556;18.728;2023-03-21T00:38:08;99600.88;;;20.55;32.65
51249;BME280;39642;47.556;18.728;2023-03-21T00:40:34;99601.72;;;20.55;32.64
51249;BME280;39642;47.556;18.728;2023-03-21T00:43:00;99588.59;;;20.54;32.75
51249;BME280;39642;47.556;18.728;2023-03-21T00:45:25;99585.00;;;20.55;32.65
51249;BME280;39642;47.556;18.728;2023-03-21T00:47:51;99584.16;;;20.54;32.63
51249;BME280;39642;47.556;18.728;2023-03-21T00:50:17;99593.78;;;20.55;32.65
51249;BME280;39642;47.556;18.728;2023-03-21T00:52:43;99589.37;;;20.56;32.71
51249;BME280;39642;47.556;18.728;2023-03-21T00:55:14;99581.50;;;20.54;32.65
51249;BME280;39642;47.556;18.728;2023-03-21T00:57:40;99582.34;;;20.55;32.60
51249;BME280;39642;47.556;18.728;2023-03-21T01:00:09;99584.16;;;20.54;32.63
51249;BME280;39642;47.556;18.728;2023-03-21T01:02:35;99575.38;;;20.54;32.65
51249;BME280;39642;47.556;18.728;2023-03-21T01:05:03;99578.88;;;20.54;32.73
51249;BME280;39642;47.556;18.728;2023-03-21T01:07:29;99581.59;;;20.53;32.68
51249;BME280;39642;47.556;18.728;2023-03-21T01:09:55;99570.19;;;20.52;32.66
51249;BME280;39642;47.556;18.728;2023-03-21T01:12:21;99575.47;;;20.52;32.63
51249;BME280;39642;47.556;18.728;2023-03-21T01:14:47;99571.03;;;20.53;32.73
51249;BME280;39642;47.556;18.728;2023-03-21T01:17:13;99567.53;;;20.52;32.73
51249;BME280;39642;47.556;18.728;2023-03-21T01:19:39;99572.81;;;20.52;32.55
51249;BME280;39642;47.556;18.728;2023-03-21T01:22:05;99573.78;;;20.51;32.70
51249;BME280;39642;47.556;18.728;2023-03-21T01:24:31;99567.63;;;20.51;32.65
51249;BME280;39642;47.556;18.728;2023-03-21T01:26:57;99565.94;;;20.50;32.66
51249;BME280;39642;47.556;18.728;2023-03-21T01:29:23;99570.25;;;20.51;32.61
51249;BME280;39642;47.556;18.728;2023-03-21T01:31:48;99573.87;;;20.50;32.64
51249;BME280;39642;47.556;18.728;2023-03-21T01:34:14;99565.09;;;20.49;32.67
51249;BME280;39642;47.556;18.728;2023-03-21T01:36:40;99563.28;;;20.50;32.64
51249;BME280;39642;47.556;18.728;2023-03-21T01:39:06;99569.50;;;20.49;32.67
51249;BME280;39642;47.556;18.728;2023-03-21T01:41:36;99571.22;;;20.50;32.69
51249;BME280;39642;47.556;18.728;2023-03-21T01:44:02;99563.38;;;20.48;32.69
51249;BME280;39642;47.556;18.728;2023-03-21T01:46:47;99564.22;;;20.49;32.70
51249;BME280;39642;47.556;18.728;2023-03-21T01:51:52;99561.56;;;20.49;32.68
51249;BME280;39642;47.556;18.728;2023-03-21T01:54:24;99566.84;;;20.49;32.64
51249;BME280;39642;47.556;18.728;2023-03-21T01:56:54;99558.09;;;20.48;32.71
51249;BME280;39642;47.556;18.728;2023-03-21T01:59:26;99569.50;;;20.49;32.69
51249;BME280;39642;47.556;18.728;2023-03-21T02:01:54;99558.94;;;20.49;32.70
51249;BME280;39642;47.556;18.728;2023-03-21T02:04:21;99561.56;;;20.49;32.76
51249;BME280;39642;47.556;18.728;2023-03-21T02:09:31;99566.97;;;20.47;32.79
51249;BME280;39642;47.556;18.728;2023-03-21T02:11:59;99571.22;;;20.50;32.79
51249;BME280;39642;47.556;18.728;2023-03-21T02:14:25;99560.72;;;20.48;32.75
51249;BME280;39642;47.556;18.728;2023-03-21T02:22:42;99561.56;;;20.49;32.70
51249;BME280;39642;47.556;18.728;2023-03-21T02:28:21;99560.72;;;20.48;32.71
51249;BME280;39642;47.556;18.728;2023-03-21T02:33:21;99562.31;;;20.51;32.72
51249;BME280;39642;47.556;18.728;2023-03-21T02:39:13;99564.22;;;20.49;32.76
51249;BME280;39642;47.556;18.728;2023-03-21T02:52:31;99561.56;;;20.49;32.85
51249;BME280;39642;47.556;18.728;2023-03-21T02:54:59;99561.56;;;20.49;32.77
51249;BME280;39642;47.556;18.728;2023-03-21T02:57:29;99561.56;;;20.49;32.79
51249;BME280;39642;47.556;18.728;2023-03-21T02:59:57;99566.84;;;20.49;32.77
51249;BME280;39642;47.556;18.728;2023-03-21T03:02:26;99563.38;;;20.48;32.77
51249;BME280;39642;47.556;18.728;2023-03-21T03:04:52;99564.22;;;20.49;32.86
51249;BME280;39642;47.556;18.728;2023-03-21T03:07:39;99560.72;;;20.48;32.81
51249;BME280;39642;47.556;18.728;2023-03-21T03:13:12;99567.81;;;20.48;32.82
51249;BME280;39642;47.556;18.728;2023-03-21T03:16:07;99564.22;;;20.49;32.81
51249;BME280;39642;47.556;18.728;2023-03-21T03:18:53;99559.87;;;20.48;32.75
51249;BME280;39642;47.556;18.728;2023-03-21T03:23:55;99558.94;;;20.49;32.77
51249;BME280;39642;47.556;18.728;2023-03-21T03:26:26;99565.19;;;20.48;32.83
51249;BME280;39642;47.556;18.728;2023-03-21T03:28:57;99561.69;;;20.47;32.76
51249;BME280;39642;47.556;18.728;2023-03-21T03:31:28;99566.84;;;20.49;32.74
51249;BME280;39642;47.556;18.728;2023-03-21T03:34:00;99564.34;;;20.47;32.76
51249;BME280;39642;47.556;18.728;2023-03-21T03:36:30;99567.81;;;20.48;32.82
51249;BME280;39642;47.556;18.728;2023-03-21T03:39:06;99568.78;;;20.47;32.78
51249;BME280;39642;47.556;18.728;2023-03-21T03:41:40;99572.25;;;20.47;32.80
51249;BME280;39642;47.556;18.728;2023-03-21T03:44:07;99568.78;;;20.47;32.79
51249;BME280;39642;47.556;18.728;2023-03-21T03:46:55;99566.13;;;20.47;32.78
51249;BME280;39642;47.556;18.728;2023-03-21T03:49:25;99570.56;;;20.46;32.77
51249;BME280;39642;47.556;18.728;2023-03-21T03:51:56;99571.44;;;20.47;32.82
51249;BME280;39642;47.556;18.728;2023-03-21T03:54:39;99571.44;;;20.47;32.80
51249;BME280;39642;47.556;18.728;2023-03-21T03:57:07;99569.63;;;20.47;32.74
51249;BME280;39642;47.556;18.728;2023-03-21T03:59:35;99566.13;;;20.47;32.78
51249;BME280;39642;47.556;18.728;2023-03-21T04:02:02;99563.50;;;20.47;32.75
51249;BME280;39642;47.556;18.728;2023-03-21T04:04:28;99574.06;;;20.47;32.74
51249;BME280;39642;47.556;18.728;2023-03-21T04:06:56;99577.56;;;20.47;32.74
51249;BME280;39642;47.556;18.728;2023-03-21T04:09:23;99567.81;;;20.48;32.71
51249;BME280;39642;47.556;18.728;2023-03-21T04:11:49;99568.78;;;20.47;32.76
51249;BME280;39642;47.556;18.728;2023-03-21T04:14:15;99569.63;;;20.47;32.77
51249;BME280;39642;47.556;18.728;2023-03-21T04:16:41;99563.38;;;20.48;32.70
51249;BME280;39642;47.556;18.728;2023-03-21T04:19:07;99565.19;;;20.48;32.71
51249;BME280;39642;47.556;18.728;2023-03-21T04:21:34;99568.66;;;20.48;32.73
51249;BME280;39642;47.556;18.728;2023-03-21T04:23:59;99558.94;;;20.49;32.69
51249;BME280;39642;47.556;18.728;2023-03-21T04:26:25;99558.09;;;20.48;32.71
51249;BME280;39642;47.556;18.728;2023-03-21T04:28:58;99562.53;;;20.48;32.72
51249;BME280;39642;47.556;18.728;2023-03-21T04:31:31;99563.38;;;20.48;32.73
51249;BME280;39642;47.556;18.728;2023-03-21T04:34:00;99558.94;;;20.49;32.73
51249;BME280;39642;47.556;18.728;2023-03-21T04:36:27;99565.19;;;20.48;32.71
51249;BME280;39642;47.556;18.728;2023-03-21T04:39:04;99567.81;;;20.48;32.77
51249;BME280;39642;47.556;18.728;2023-03-21T04:41:30;99566.97;;;20.47;32.72
51249;BME280;39642;47.556;18.728;2023-03-21T04:43:56;99568.66;;;20.48;32.73
51249;BME280;39642;47.556;18.728;2023-03-21T04:46:23;99571.31;;;20.48;32.71
51249;BME280;39642;47.556;18.728;2023-03-21T04:48:48;99564.34;;;20.47;32.70
51249;BME280;39642;47.556;18.728;2023-03-21T04:51:15;99566.97;;;20.47;32.70
51249;BME280;39642;47.556;18.728;2023-03-21T04:53:41;99569.63;;;20.47;32.70
51249;BME280;39642;47.556;18.728;2023-03-21T04:56:10;99572.25;;;20.47;32.75
51249;BME280;39642;47.556;18.728;2023-03-21T04:58:37;99574.91;;;20.47;32.72
51249;BME280;39642;47.556;18.728;2023-03-21T05:01:05;99574.06;;;20.47;32.75
51249;BME280;39642;47.556;18.728;2023-03-21T05:03:32;99575.84;;;20.46;32.71
51249;BME280;39642;47.556;18.728;2023-03-21T05:06:00;99575.84;;;20.46;32.70
51249;BME280;39642;47.556;18.728;2023-03-21T05:08:27;99574.16;;;20.45;32.86
51249;BME280;39642;47.556;18.728;2023-03-21T05:10:53;99575.84;;;20.46;32.87
51249;BME280;39642;47.556;18.728;2023-03-21T05:13:18;99577.72;;;20.44;32.80
51249;BME280;39642;47.556;18.728;2023-03-21T05:15:45;99581.31;;;20.43;32.81
51249;BME280;39642;47.556;18.728;2023-03-21T05:18:11;99578.59;;;20.45;32.87
51249;BME280;39642;47.556;18.728;2023-03-21T05:20:38;99576.97;;;20.42;32.93
51249;BME280;39642;47.556;18.728;2023-03-21T05:23:11;99575.19;;;20.43;32.94
51249;BME280;39642;47.556;18.728;2023-03-21T05:25:38;99583.13;;;20.43;33.13
51249;BME280;39642;47.556;18.728;2023-03-21T05:28:05;99582.25;;;20.42;33.16
51249;BME280;39642;47.556;18.728;2023-03-21T05:30:32;99573.47;;;20.42;33.47
51249;BME280;39642;47.556;18.728;2023-03-21T05:32:58;99569.03;;;20.42;33.69
51249;BME280;39642;47.556;18.728;2023-03-21T05:35:25;99576.13;;;20.42;33.80
51249;BME280;39642;47.556;18.728;2023-03-21T05:37:51;99581.41;;;20.42;33.89
51249;BME280;39642;47.556;18.728;2023-03-21T05:40:18;99582.37;;;20.41;34.26
51249;BME280;39642;47.556;18.728;2023-03-21T05:42:45;99582.44;;;20.39;34.53
51249;BME280;39642;47.556;18.728;2023-03-21T05:45:12;99592.09;;;20.40;34.88
51249;BME280;39642;47.556;18.728;2023-03-21T05:47:38;99584.06;;;20.42;36.10
51249;BME280;39642;47.556;18.728;2023-03-21T05:50:05;99592.84;;;20.42;34.79
51249;BME280;39642;47.556;18.728;2023-03-21T05:52:32;99593.72;;;20.43;35.13
51249;BME280;39642;47.556;18.728;2023-03-21T05:54:58;99596.25;;;20.44;34.83
51249;BME280;39642;47.556;18.728;2023-03-21T05:57:26;99597.13;;;20.45;34.84
51249;BME280;39642;47.556;18.728;2023-03-21T05:59:53;99598.88;;;20.44;35.09
51249;BME280;39642;47.556;18.728;2023-03-21T06:02:19;99599.75;;;20.45;35.36
51249;BME280;39642;47.556;18.728;2023-03-21T06:04:45;99591.81;;;20.45;35.50
51249;BME280;39642;47.556;18.728;2023-03-21T06:07:11;99589.19;;;20.45;35.02
51249;BME280;39642;47.556;18.728;2023-03-21T06:09:37;99589.94;;;20.47;35.45
51249;BME280;39642;47.556;18.728;2023-03-21T06:12:03;99589.81;;;20.48;36.04
51249;BME280;39642;47.556;18.728;2023-03-21T06:14:28;99588.03;;;20.49;36.31
51249;BME280;39642;47.556;18.728;2023-03-21T06:16:54;99589.72;;;20.50;36.22
51249;BME280;39642;47.556;18.728;2023-03-21T06:19:20;99599.47;;;20.49;37.51
51249;BME280;39642;47.556;18.728;2023-03-21T06:21:47;99594.19;;;20.49;38.03
51249;BME280;39642;47.556;18.728;2023-03-21T06:24:13;99590.66;;;20.49;38.59
51249;BME280;39642;47.556;18.728;2023-03-21T06:26:39;99601.84;;;20.54;38.67
51249;BME280;39642;47.556;18.728;2023-03-21T06:29:07;99598.94;;;20.58;38.28
51249;BME280;39642;47.556;18.728;2023-03-21T06:31:33;99597.69;;;20.64;38.82
51249;BME280;39642;47.556;18.728;2023-03-21T06:33:59;99596.75;;;20.65;37.20
51249;BME280;39642;47.556;18.728;2023-03-21T06:36:25;99591.56;;;20.64;36.95
51249;BME280;39642;47.556;18.728;2023-03-21T06:38:51;99600.81;;;20.56;36.93
51249;BME280;39642;47.556;18.728;2023-03-21T06:41:17;99601.84;;;20.54;36.78
51249;BME280;39642;47.556;18.728;2023-03-21T06:43:43;99593.12;;;20.52;36.51
51249;BME280;39642;47.556;18.728;2023-03-21T06:46:09;99585.28;;;20.50;36.38
51249;BME280;39642;47.556;18.728;2023-03-21T06:48:36;99595.03;;;20.50;36.54
51249;BME280;39642;47.556;18.728;2023-03-21T06:51:04;99595.22;;;20.47;36.41
51249;BME280;39642;47.556;18.728;2023-03-21T06:53:30;99597.13;;;20.45;36.48
51249;BME280;39642;47.556;18.728;2023-03-21T06:55:57;99591.63;;;20.48;36.34
51249;BME280;39642;47.556;18.728;2023-03-21T06:58:23;99598.59;;;20.49;36.46
51249;BME280;39642;47.556;18.728;2023-03-21T07:00:49;99596.63;;;20.52;36.28
51249;BME280;39642;47.556;18.728;2023-03-21T07:03:15;99598.44;;;20.52;36.29
51249;BME280;39642;47.556;18.728;2023-03-21T07:05:41;99599.34;;;20.51;36.14
51249;BME280;39642;47.556;18.728;2023-03-21T07:08:08;99595.66;;;20.53;36.11
51249;BME280;39642;47.556;18.728;2023-03-21T07:10:43;99601.72;;;20.55;35.99
51249;BME280;39642;47.556;18.728;2023-03-21T07:13:09;99599.88;;;20.57;35.87
51249;BME280;39642;47.556;18.728;2023-03-21T07:15:35;99594.06;;;20.51;35.62
51249;BME280;39642;47.556;18.728;2023-03-21T07:18:04;99603.16;;;20.47;35.64
51249;BME280;39642;47.556;18.728;2023-03-21T07:20:30;99602.41;;;20.45;35.59
51249;BME280;39642;47.556;18.728;2023-03-21T07:22:57;99604.56;;;20.38;35.71
51249;BME280;39642;47.556;18.728;2023-03-21T07:25:23;99603.34;;;20.29;35.92
51249;BME280;39642;47.556;18.728;2023-03-21T07:27:49;99607.78;;;20.29;36.05
51249;BME280;39642;47.556;18.728;2023-03-21T07:30:15;99610.13;;;20.33;36.09
51249;BME280;39642;47.556;18.728;2023-03-21T07:32:41;99609.38;;;20.31;35.90
51249;BME280;39642;47.556;18.728;2023-03-21T07:35:10;99613.53;;;20.35;35.72
51249;BME280;39642;47.556;18.728;2023-03-21T07:37:37;99611.53;;;20.39;35.83
51249;BME280;39642;47.556;18.728;2023-03-21T07:40:03;99611.47;;;20.41;35.69
51249;BME280;39642;47.556;18.728;2023-03-21T07:42:36;99611.47;;;20.41;36.06
51249;BME280;39642;47.556;18.728;2023-03-21T07:45:03;99619.28;;;20.42;35.61
51249;BME280;39642;47.556;18.728;2023-03-21T07:47:31;99622.78;;;20.43;35.55
51249;BME280;39642;47.556;18.728;2023-03-21T07:49:57;99621.94;;;20.42;35.70
51249;BME280;39642;47.556;18.728;2023-03-21T07:52:23;99623.62;;;20.43;35.87
51249;BME280;39642;47.556;18.728;2023-03-21T07:54:49;99622.69;;;20.44;36.06
51249;BME280;39642;47.556;18.728;2023-03-21T07:57:15;99628.84;;;20.45;36.19
51249;BME280;39642;47.556;18.728;2023-03-21T07:59:42;99627.53;;;20.52;36.97
51249;BME280;39642;47.556;18.728;2023-03-21T08:02:13;99631.03;;;20.67;37.26
51249;BME280;39642;47.556;18.728;2023-03-21T08:04:39;99627.09;;;20.74;37.23
51249;BME280;39642;47.556;18.728;2023-03-21T08:07:05;99626.87;;;20.77;37.13
51249;BME280;39642;47.556;18.728;2023-03-21T08:09:31;99629.53;;;20.77;37.05
51249;BME280;39642;47.556;18.728;2023-03-21T08:11:57;99638.31;;;20.77;36.72
51249;BME280;39642;47.556;18.728;2023-03-21T08:14:23;99633.13;;;20.76;36.78
51249;BME280;39642;47.556;18.728;2023-03-21T08:16:48;99635.87;;;20.74;37.14
51249;BME280;39642;47.556;18.728;2023-03-21T08:19:14;99637.75;;;20.72;37.18
51249;BME280;39642;47.556;18.728;2023-03-21T08:21:40;99633.31;;;20.73;37.31
51249;BME280;39642;47.556;18.728;2023-03-21T08:24:07;99638.69;;;20.71;37.25
51249;BME280;39642;47.556;18.728;2023-03-21T08:26:33;99634.28;;;20.72;37.12
51249;BME280;39642;47.556;18.728;2023-03-21T08:28:59;99634.28;;;20.72;36.73
51249;BME280;39642;47.556;18.728;2023-03-21T08:31:25;99629.91;;;20.71;36.93
51249;BME280;39642;47.556;18.728;2023-03-21T08:33:51;99633.50;;;20.70;37.48
51249;BME280;39642;47.556;18.728;2023-03-21T08:36:20;99637.09;;;20.69;36.91
51249;BME280;39642;47.556;18.728;2023-03-21T08:38:47;99634.44;;;20.69;36.96
51249;BME280;39642;47.556;18.728;2023-03-21T08:41:16;99635.47;;;20.66;36.91
51249;BME280;39642;47.556;18.728;2023-03-21T08:43:43;99637.28;;;20.66;36.96
51249;BME280;39642;47.556;18.728;2023-03-21T08:46:09;99640.78;;;20.66;36.91
51249;BME280;39642;47.556;18.728;2023-03-21T08:48:35;99637.19;;;20.67;36.92
51249;BME280;39642;47.556;18.728;2023-03-21T08:51:04;99649.66;;;20.65;37.01
51249;BME280;39642;47.556;18.728;2023-03-21T08:53:31;99647.03;;;20.65;37.06
51249;BME280;39642;47.556;18.728;2023-03-21T08:55:57;99646.06;;;20.66;37.18
51249;BME280;39642;47.556;18.728;2023-03-21T08:58:23;99642.28;;;20.70;37.15
51249;BME280;39642;47.556;18.728;2023-03-21T09:00:49;99646.53;;;20.73;36.91
51249;BME280;39642;47.556;18.728;2023-03-21T09:03:15;99639.44;;;20.73;37.16
51249;BME280;39642;47.556;18.728;2023-03-21T09:05:41;99644.94;;;20.70;37.69
51249;BME280;39642;47.556;18.728;2023-03-21T09:08:10;99639.94;;;20.66;38.37
51249;BME280;39642;47.556;18.728;2023-03-21T09:10:38;99629.44;;;20.64;38.61
51249;BME280;39642;47.556;18.728;2023-03-21T09:13:04;99633.69;;;20.67;38.73
51249;BME280;39642;47.556;18.728;2023-03-21T09:15:30;99632.75;;;20.68;38.95
51249;BME280;39642;47.556;18.728;2023-03-21T09:17:57;99638.03;;;20.68;38.76
51249;BME280;39642;47.556;18.728;2023-03-21T09:20:38;99634.34;;;20.70;38.49
51249;BME280;39642;47.556;18.728;2023-03-21T09:23:05;99638.69;;;20.71;38.56
51249;BME280;39642;47.556;18.728;2023-03-21T09:25:31;99635.13;;;20.72;38.17
51249;BME280;39642;47.556;18.728;2023-03-21T09:27:58;99633.41;;;20.71;38.10
51249;BME280;39642;47.556;18.728;2023-03-21T09:30:24;99627.09;;;20.74;38.01
51249;BME280;39642;47.556;18.728;2023-03-21T09:32:50;99627.94;;;20.74;37.95
51249;BME280;39642;47.556;18.728;2023-03-21T09:35:18;99633.13;;;20.76;38.18
51249;BME280;39642;47.556;18.728;2023-03-21T09:37:46;99631.34;;;20.76;37.89
51249;BME280;39642;47.556;18.728;2023-03-21T09:40:19;99621.59;;;20.77;37.80
51249;BME280;39642;47.556;18.728;2023-03-21T09:42:55;99624.34;;;20.75;37.66
51249;BME280;39642;47.556;18.728;2023-03-21T09:45:35;99633.03;;;20.77;38.08
51249;BME280;39642;47.556;18.728;2023-03-21T09:48:04;99623.12;;;20.81;38.29
51249;BME280;39642;47.556;18.728;2023-03-21T09:50:33;99621.09;;;20.85;38.24
51249;BME280;39642;47.556;18.728;2023-03-21T09:53:05;99618.09;;;20.91;38.17
51249;BME280;39642;47.556;18.728;2023-03-21T09:55:34;99620.53;;;20.94;38.04
51249;BME280;39642;47.556;18.728;2023-03-21T10:00:48;99622.16;;;20.96;38.26
51249;BME280;39642;47.556;18.728;2023-03-21T10:03:29;99610.53;;;20.99;37.74
51249;BME280;39642;47.556;18.728;2023-03-21T10:05:58;99617.88;;;20.94;37.71
51249;BME280;39642;47.556;18.728;2023-03-21T10:08:31;99630.38;;;20.92;38.00
51249;BME280;39642;47.556;18.728;2023-03-21T10:11:02;99618.94;;;20.91;38.42
51249;BME280;39642;47.556;18.728;2023-03-21T10:13:39;99612.59;;;20.94;38.11
51249;BME280;39642;47.556;18.728;2023-03-21T10:16:16;99610.69;;;20.96;37.77
51249;BME280;39642;47.556;18.728;2023-03-21T10:18:45;99612.59;;;20.94;37.69
51249;BME280;39642;47.556;18.728;2023-03-21T10:21:22;99607.97;;;20.97;37.32
51249;BME280;39642;47.556;18.728;2023-03-21T10:23:51;99605.97;;;21.01;36.84
51249;BME280;39642;47.556;18.728;2023-03-21T10:26:20;99603.22;;;21.03;36.50
51249;BME280;39642;47.556;18.728;2023-03-21T10:28:48;99604.94;;;21.04;36.27
51249;BME280;39642;47.556;18.728;2023-03-21T10:31:17;99604.94;;;21.04;36.29
51249;BME280;39642;47.556;18.728;2023-03-21T10:33:46;99601.44;;;21.03;36.18
51249;BME280;39642;47.556;18.728;2023-03-21T10:36:16;99606.75;;;21.03;36.30
51249;BME280;39642;47.556;18.728;2023-03-21T10:38:48;99610.22;;;21.04;35.86
51249;BME280;39642;47.556;18.728;2023-03-21T10:41:14;99609.28;;;21.05;35.33
51249;BME280;39642;47.556;18.728;2023-03-21T10:43:42;99601.44;;;21.03;36.42
51249;BME280;39642;47.556;18.728;2023-03-21T10:46:12;99610.53;;;20.99;36.42
51249;BME280;39642;47.556;18.728;2023-03-21T10:48:42;99599.09;;;20.98;36.35
51249;BME280;39642;47.556;18.728;2023-03-21T10:51:16;99599.09;;;20.98;36.21
51249;BME280;39642;47.556;18.728;2023-03-21T10:53:51;99595.69;;;20.96;35.91
51249;BME280;39642;47.556;18.728;2023-03-21T10:56:23;99596.53;;;20.97;36.03
51249;BME280;39642;47.556;18.728;2023-03-21T10:58:51;99586.88;;;20.96;35.75
51249;BME280;39642;47.556;18.728;2023-03-21T11:01:28;99584.34;;;20.94;36.10
51249;BME280;39642;47.556;18.728;2023-03-21T11:03:58;99583.59;;;20.92;35.51
51249;BME280;39642;47.556;18.728;2023-03-21T11:06:29;99575.81;;;20.89;35.72
51249;BME280;39642;47.556;18.728;2023-03-21T11:09:04;99583.00;;;20.87;35.54
51249;BME280;39642;47.556;18.728;2023-03-21T11:11:38;99577.91;;;20.84;35.33
51249;BME280;39642;47.556;18.728;2023-03-21T11:14:11;99573.13;;;20.76;35.32
51249;BME280;39642;47.556;18.728;2023-03-21T11:16:49;99572.38;;;20.74;35.61
51249;BME280;39642;47.556;18.728;2023-03-21T11:19:19;99568.97;;;20.72;35.87
51249;BME280;39642;47.556;18.728;2023-03-21T11:21:50;99561.13;;;20.71;36.44
51249;BME280;39642;47.556;18.728;2023-03-21T11:24:17;99561.97;;;20.71;36.26
51249;BME280;39642;47.556;18.728;2023-03-21T11:26:46;99554.03;;;20.71;36.76
51249;BME280;39642;47.556;18.728;2023-03-21T11:29:30;99551.28;;;20.73;36.70
51249;BME280;39642;47.556;18.728;2023-03-21T11:32:00;99540.50;;;20.76;36.66
51249;BME280;39642;47.556;18.728;2023-03-21T11:34:36;99535.22;;;20.76;35.86
51249;BME280;39642;47.556;18.728;2023-03-21T11:37:04;99537.69;;;20.79;36.20
51249;BME280;39642;47.556;18.728;2023-03-21T11:39:36;99529.25;;;20.87;37.08
51249;BME280;39642;47.556;18.728;2023-03-21T11:42:23;99526.28;;;20.91;37.51
51249;BME280;39642;47.556;18.728;2023-03-21T11:44:57;99523.47;;;20.94;37.30
51249;BME280;39642;47.556;18.728;2023-03-21T11:47:25;99528.84;;;20.93;37.13
51249;BME280;39642;47.556;18.728;2023-03-21T11:49:51;99531.72;;;20.90;37.37
51249;BME280;39642;47.556;18.728;2023-03-21T11:52:26;99530.97;;;20.88;37.72
51249;BME280;39642;47.556;18.728;2023-03-21T12:00:40;99523.19;;;20.85;37.98
51249;BME280;39642;47.556;18.728;2023-03-21T12:03:42;99519.16;;;20.79;37.84
51249;BME280;39642;47.556;18.728;2023-03-21T12:06:21;99520.97;;;20.78;37.88
51249;BME280;39642;47.556;18.728;2023-03-21T12:20:13;99507.72;;;20.78;37.42
51249;BME280;39642;47.556;18.728;2023-03-21T12:22:58;99511.31;;;20.77;37.33
51249;BME280;39642;47.556;18.728;2023-03-21T12:25:36;99501.78;;;20.75;37.41
51249;BME280;39642;47.556;18.728;2023-03-21T12:39:26;99490.13;;;20.77;37.61
51249;BME280;39642;47.556;18.728;2023-03-21T12:44:26;99498.63;;;20.83;38.12
51249;BME280;39642;47.556;18.728;2023-03-21T12:47:08;99482.75;;;20.83;38.05
51249;BME280;39642;47.556;18.728;2023-03-21T12:49:43;99476.53;;;20.84;37.83
51249;BME280;39642;47.556;18.728;2023-03-21T12:52:20;99473.66;;;20.87;37.64
51249;BME280;39642;47.556;18.728;2023-03-21T12:54:51;99476.22;;;20.88;37.31
51249;BME280;39642;47.556;18.728;2023-03-21T13:00:13;99463.19;;;20.85;37.16
51249;BME280;39642;47.556;18.728;2023-03-21T13:02:56;99464.97;;;20.85;37.26
51249;BME280;39642;47.556;18.728;2023-03-21T13:05:29;99468.59;;;20.84;37.19
51249;BME280;39642;47.556;18.728;2023-03-21T13:10:29;99461.69;;;20.81;36.78
51249;BME280;39642;47.556;18.728;2023-03-21T13:16:34;99447.06;;;20.75;35.75
51249;BME280;39642;47.556;18.728;2023-03-21T13:19:09;99443.78;;;20.72;35.91
51249;BME280;39642;47.556;18.728;2023-03-21T13:24:18;99432.62;;;20.67;35.70
51249;BME280;39642;47.556;18.728;2023-03-21T13:26:48;99433.59;;;20.66;35.31
51249;BME280;39642;47.556;18.728;2023-03-21T13:29:22;99436.31;;;20.64;35.62
51249;BME280;39642;47.556;18.728;2023-03-21T13:31:51;99449.75;;;20.61;35.23
51249;BME280;39642;47.556;18.728;2023-03-21T13:34:20;99444.47;;;20.61;36.38
51249;BME280;39642;47.556;18.728;2023-03-21T13:36:49;99452.09;;;20.66;36.78
51249;BME280;39642;47.556;18.728;2023-03-21T13:39:19;99442.34;;;20.66;36.45
51249;BME280;39642;47.556;18.728;2023-03-21T13:41:48;99445.66;;;20.70;37.15
51249;BME280;39642;47.556;18.728;2023-03-21T13:44:24;99443.03;;;20.70;36.63
51249;BME280;39642;47.556;18.728;2023-03-21T13:47:05;99443.03;;;20.70;37.17
51249;BME280;39642;47.556;18.728;2023-03-21T13:50:19;99438.47;;;20.72;38.38
51249;BME280;39642;47.556;18.728;2023-03-21T13:55:28;99437.31;;;20.76;38.60
51249;BME280;39642;47.556;18.728;2023-03-21T13:57:56;99434.66;;;20.76;37.96
51249;BME280;39642;47.556;18.728;2023-03-21T14:00:29;99429.37;;;20.76;38.88
51249;BME280;39642;47.556;18.728;2023-03-21T14:02:59;99420.50;;;20.77;39.49
51249;BME280;39642;47.556;18.728;2023-03-21T14:05:31;99428.34;;;20.78;39.61
51249;BME280;39642;47.556;18.728;2023-03-21T14:08:00;99419.66;;;20.76;39.84
51249;BME280;39642;47.556;18.728;2023-03-21T14:10:36;99426.72;;;20.76;39.77
51249;BME280;39642;47.556;18.728;2023-03-21T14:13:08;99420.59;;;20.75;39.77
51249;BME280;39642;47.556;18.728;2023-03-21T14:15:43;99421.34;;;20.77;39.12
51249;BME280;39642;47.556;18.728;2023-03-21T14:18:14;99411.81;;;20.75;39.31
51249;BME280;39642;47.556;18.728;2023-03-21T14:20:40;99418.06;;;20.74;39.19
51249;BME280;39642;47.556;18.728;2023-03-21T14:23:12;99409.25;;;20.73;40.50
51249;BME280;39642;47.556;18.728;2023-03-21T14:25:39;99406.72;;;20.72;39.17